createdAt,value
2018-10-12T00:00:43.167Z,8.13
2018-10-12T00:03:11.960Z,8.90
2018-10-12T00:05:40.971Z,9.30
2018-10-12T00:08:09.222Z,8.13
2018-10-12T00:10:37.254Z,8.98
2018-10-12T00:13:05.358Z,8.73
2018-10-12T00:15:33.429Z,8.45
2018-10-12T00:18:01.480Z,8.55
2018-10-12T00:20:30.155Z,8.94
2018-10-12T00:22:58.190Z,8.63
2018-10-12T00:25:26.210Z,8.78
2018-10-12T00:27:54.280Z,8.85
2018-10-12T00:30:22.291Z,8.53
2018-10-12T00:32:50.323Z,8.63
2018-10-12T00:35:18.365Z,9.98
2018-10-12T00:37:46.374Z,8.68
2018-10-12T00:40:14.384Z,9.23
2018-10-12T00:42:42.636Z,8.40
2018-10-12T00:45:10.968Z,8.95
2018-10-12T00:47:39.020Z,8.20
2018-10-12T00:50:07.117Z,8.73
2018-10-12T00:52:35.170Z,9.20
2018-10-12T00:55:03.283Z,9.00
2018-10-12T00:57:31.985Z,8.55
2018-10-12T01:00:00.072Z,8.20
2018-10-12T01:02:28.159Z,9.48
2018-10-12T01:04:56.630Z,9.08
2018-10-12T01:07:24.663Z,8.65
2018-10-12T01:09:55.715Z,8.60
2018-10-12T01:12:30.057Z,8.80
2018-10-12T01:14:58.519Z,10.03
2018-10-12T01:17:26.987Z,10.08
2018-10-12T01:19:55.375Z,9.88
2018-10-12T01:22:23.578Z,9.98
2018-10-12T01:24:51.602Z,8.83
2018-10-12T01:27:19.628Z,8.30
2018-10-12T01:29:47.803Z,10.43
2018-10-12T01:32:21.260Z,9.63
2018-10-12T01:34:49.540Z,10.03
2018-10-12T01:37:17.828Z,10.15
2018-10-12T01:39:46.071Z,10.28
2018-10-12T01:42:14.782Z,9.83
2018-10-12T01:44:43.062Z,9.20
2018-10-12T01:47:12.354Z,9.25
2018-10-12T01:49:40.571Z,9.98
2018-10-12T01:52:09.467Z,10.05
2018-10-12T01:54:37.525Z,10.38
2018-10-12T01:57:05.773Z,10.17
2018-10-12T01:59:33.788Z,9.70
2018-10-12T02:02:02.210Z,10.65
2018-10-12T02:04:30.298Z,10.75
2018-10-12T02:06:58.371Z,10.70
2018-10-12T02:09:26.483Z,11.30
2018-10-12T02:11:54.524Z,10.35
2018-10-12T02:14:22.554Z,10.93
2018-10-12T02:16:51.043Z,9.23
2018-10-12T02:19:19.092Z,9.93
2018-10-12T02:21:47.112Z,10.43
2018-10-12T02:24:15.463Z,10.60
2018-10-12T02:26:43.718Z,10.48
2018-10-12T02:29:11.770Z,12.15
2018-10-12T02:31:39.865Z,10.65
2018-10-12T02:34:07.860Z,10.87
2018-10-12T02:36:35.874Z,10.65
2018-10-12T02:39:05.981Z,10.10
2018-10-12T02:41:34.013Z,10.43
2018-10-12T02:44:02.032Z,11.12
2018-10-12T02:46:30.148Z,10.68
2018-10-12T02:48:58.516Z,11.15
2018-10-12T02:51:26.542Z,9.75
2018-10-12T02:53:54.999Z,10.87
2018-10-12T02:56:23.975Z,10.53
2018-10-12T02:58:52.463Z,11.20
2018-10-12T03:01:21.442Z,10.90
2018-10-12T03:03:50.045Z,10.82
2018-10-12T03:06:18.065Z,10.70
2018-10-12T03:08:46.511Z,11.33
2018-10-12T03:11:14.764Z,10.68
2018-10-12T03:13:43.242Z,10.63
2018-10-12T03:16:12.147Z,10.85
2018-10-12T03:18:40.303Z,11.28
2018-10-12T03:21:08.319Z,11.38
2018-10-12T03:23:36.430Z,12.07
2018-10-12T03:26:04.474Z,10.50
2018-10-12T03:28:33.824Z,11.73
2018-10-12T03:31:02.828Z,11.90
2018-10-12T03:33:31.490Z,11.88
2018-10-12T03:35:59.899Z,12.75
2018-10-12T03:38:27.991Z,11.25
2018-10-12T03:40:56.167Z,11.15
2018-10-12T03:43:24.394Z,11.12
2018-10-12T03:45:52.508Z,14.18
2018-10-12T03:48:20.553Z,12.10
2018-10-12T03:50:49.219Z,11.57
2018-10-12T03:53:17.499Z,13.05
2018-10-12T03:55:45.571Z,10.58
2018-10-12T03:58:14.049Z,11.70
2018-10-12T04:00:42.360Z,11.60
2018-10-12T04:03:10.399Z,10.85
2018-10-12T04:05:38.890Z,12.75
2018-10-12T04:08:07.055Z,11.95
2018-10-12T04:10:35.114Z,12.03
2018-10-12T04:13:03.298Z,12.47
2018-10-12T04:15:31.427Z,11.97
2018-10-12T04:17:59.499Z,11.80
2018-10-12T04:20:27.573Z,12.40
2018-10-12T04:22:55.616Z,12.63
2018-10-12T04:25:23.650Z,11.08
2018-10-12T04:27:52.314Z,12.56
2018-10-12T04:30:20.416Z,12.00
2018-10-12T04:32:48.478Z,13.18
2018-10-12T04:35:16.564Z,13.32
2018-10-12T04:37:44.673Z,13.50
2018-10-12T04:41:28.870Z,11.20
2018-10-12T04:43:58.487Z,11.80
2018-10-12T04:46:31.047Z,13.75
2018-10-12T04:48:59.452Z,14.20
2018-10-12T04:52:00.894Z,13.80
2018-10-12T04:54:29.115Z,12.47
2018-10-12T04:56:57.155Z,13.22
2018-10-12T04:59:25.228Z,11.88
2018-10-12T05:01:53.288Z,12.20
2018-10-12T05:04:21.312Z,12.45
2018-10-12T05:06:49.531Z,12.30
2018-10-12T05:09:17.571Z,12.90
2018-10-12T05:11:45.710Z,13.70
2018-10-12T05:14:14.207Z,12.23
2018-10-12T05:16:42.237Z,14.20
2018-10-12T05:19:10.860Z,12.60
2018-10-12T05:21:39.190Z,13.25
2018-10-12T05:24:07.320Z,13.18
2018-10-12T05:26:35.606Z,12.45
2018-10-12T05:29:03.971Z,13.60
2018-10-12T05:31:32.016Z,13.40
2018-10-12T05:34:00.250Z,13.08
2018-10-12T05:36:28.529Z,11.97
2018-10-12T05:38:57.066Z,12.35
2018-10-12T05:41:25.179Z,13.25
2018-10-12T05:43:53.516Z,12.63
2018-10-12T05:46:21.895Z,13.50
2018-10-12T05:49:01.555Z,13.40
2018-10-12T05:51:29.761Z,12.50
2018-10-12T05:53:58.206Z,12.77
2018-10-12T05:56:28.366Z,14.07
2018-10-12T05:58:56.513Z,13.28
2018-10-12T06:01:24.571Z,13.90
2018-10-12T06:03:52.776Z,12.65
2018-10-12T06:06:20.867Z,13.70
2018-10-12T06:08:48.961Z,13.10
2018-10-12T06:11:17.332Z,13.93
2018-10-12T06:13:45.514Z,11.90
2018-10-12T06:16:13.802Z,11.63
2018-10-12T06:18:42.364Z,11.25
2018-10-12T06:21:10.395Z,11.95
2018-10-12T06:23:38.483Z,11.88
2018-10-12T06:26:06.559Z,10.90
2018-10-12T06:28:34.624Z,11.12
2018-10-12T06:31:03.516Z,10.35
2018-10-12T06:33:31.789Z,11.20
2018-10-12T06:35:59.810Z,11.60
2018-10-12T06:38:27.847Z,11.35
2018-10-12T06:40:56.386Z,11.88
2018-10-12T06:43:24.429Z,11.00
2018-10-12T06:45:52.592Z,10.53
2018-10-12T06:48:20.822Z,11.45
2018-10-12T06:50:49.080Z,11.53
2018-10-12T06:53:17.396Z,10.58
2018-10-12T06:55:45.654Z,10.88
2018-10-12T06:58:13.767Z,11.38
2018-10-12T07:00:41.771Z,10.70
2018-10-12T07:03:10.327Z,10.95
2018-10-12T07:05:38.401Z,11.15
2018-10-12T07:08:06.415Z,10.98
2018-10-12T07:10:34.898Z,10.73
2018-10-12T07:13:02.932Z,10.82
2018-10-12T07:15:30.952Z,10.60
2018-10-12T07:17:59.054Z,10.88
2018-10-12T07:20:27.082Z,10.00
2018-10-12T07:22:55.390Z,10.68
2018-10-12T07:25:23.475Z,10.98
2018-10-12T07:27:51.821Z,10.88
2018-10-12T07:30:19.916Z,11.33
2018-10-12T07:32:48.046Z,11.22
2018-10-12T07:35:16.814Z,11.28
2018-10-12T07:37:45.552Z,11.00
2018-10-12T07:40:12.974Z,10.43
2018-10-12T07:42:41.099Z,11.22
2018-10-12T07:45:09.231Z,10.98
2018-10-12T07:47:37.626Z,11.00
2018-10-12T07:50:05.775Z,10.40
2018-10-12T07:52:33.884Z,10.53
2018-10-12T07:55:02.204Z,11.25
2018-10-12T07:57:31.587Z,9.60
2018-10-12T08:00:00.612Z,11.97
2018-10-12T08:02:28.848Z,10.40
2018-10-12T08:04:57.026Z,10.15
2018-10-12T08:07:25.304Z,10.38
2018-10-12T08:09:53.573Z,10.10
2018-10-12T08:12:21.740Z,9.83
2018-10-12T08:14:50.990Z,9.75
2018-10-12T08:17:19.171Z,10.82
2018-10-12T08:19:47.589Z,10.70
2018-10-12T08:22:15.751Z,10.50
2018-10-12T08:24:43.998Z,9.50
2018-10-12T08:27:12.337Z,9.13
2018-10-12T08:29:40.273Z,9.28
2018-10-12T08:32:08.342Z,8.83
2018-10-12T08:34:36.402Z,9.73
2018-10-12T08:37:04.483Z,8.68
2018-10-12T08:39:32.616Z,8.95
2018-10-12T08:42:00.725Z,9.78
2018-10-12T08:44:29.020Z,11.88
2018-10-12T08:46:57.064Z,9.77
2018-10-12T08:49:25.095Z,9.73
2018-10-12T08:51:53.415Z,10.55
2018-10-12T08:54:21.461Z,9.55
2018-10-12T08:56:49.843Z,9.10
2018-10-12T08:59:18.091Z,10.00
2018-10-12T09:01:46.310Z,9.55
2018-10-12T09:04:14.367Z,9.63
2018-10-12T09:06:42.494Z,9.17
2018-10-12T09:09:11.046Z,8.93
2018-10-12T09:11:39.768Z,9.55
2018-10-12T09:14:07.857Z,9.68
2018-10-12T09:16:35.899Z,10.20
2018-10-12T09:19:03.995Z,9.73
2018-10-12T09:21:32.303Z,10.03
2018-10-12T09:24:00.570Z,9.83
2018-10-12T09:26:28.689Z,10.18
2018-10-12T09:28:56.800Z,10.63
2018-10-12T09:31:24.892Z,10.03
2018-10-12T09:33:52.958Z,10.38
2018-10-12T09:36:21.334Z,10.68
2018-10-12T09:38:49.414Z,10.55
2018-10-12T09:41:17.506Z,10.38
2018-10-12T09:43:45.722Z,10.75
2018-10-12T09:46:13.906Z,11.22
2018-10-12T09:48:41.994Z,10.28
2018-10-12T09:51:10.117Z,11.70
2018-10-12T09:53:38.209Z,9.85
2018-10-12T09:56:06.304Z,11.15
2018-10-12T09:58:34.981Z,10.53
2018-10-12T10:01:08.525Z,10.37
2018-10-12T10:03:42.424Z,10.03
2018-10-12T10:06:10.510Z,9.93
2018-10-12T10:08:38.582Z,9.58
2018-10-12T10:11:06.707Z,9.80
2018-10-12T10:13:34.916Z,8.98
2018-10-12T10:16:03.103Z,9.25
2018-10-12T10:18:31.344Z,9.50
2018-10-12T10:20:59.443Z,9.23
2018-10-12T10:23:27.596Z,9.83
2018-10-12T10:25:56.100Z,10.00
2018-10-12T10:28:24.160Z,9.80
2018-10-12T10:30:52.214Z,9.75
2018-10-12T10:33:20.333Z,8.53
2018-10-12T10:35:48.403Z,9.65
2018-10-12T10:38:16.447Z,10.53
2018-10-12T10:40:44.734Z,8.23
2018-10-12T10:43:12.999Z,10.08
2018-10-12T10:45:41.059Z,9.85
2018-10-12T10:48:09.214Z,11.00
2018-10-12T10:50:37.257Z,9.73
2018-10-12T10:53:05.412Z,10.10
2018-10-12T10:55:33.463Z,9.90
2018-10-12T10:58:01.493Z,9.65
2018-10-12T11:00:29.998Z,9.17
2018-10-12T11:02:58.051Z,9.33
2018-10-12T11:05:26.063Z,9.40
2018-10-12T11:07:54.131Z,8.78
2018-10-12T11:10:22.390Z,9.40
2018-10-12T11:12:50.534Z,8.83
2018-10-12T11:15:18.509Z,8.70
2018-10-12T11:17:46.668Z,9.68
2018-10-12T11:20:14.755Z,8.65
2018-10-12T11:22:42.796Z,8.95
2018-10-12T11:25:10.864Z,9.65
2018-10-12T11:27:38.899Z,9.03
2018-10-12T11:30:06.946Z,8.98
2018-10-12T11:32:35.050Z,10.40
2018-10-12T11:35:03.634Z,8.98
2018-10-12T11:37:31.783Z,9.30
2018-10-12T11:40:00.259Z,8.47
2018-10-12T11:42:39.823Z,9.15
2018-10-12T11:45:07.937Z,8.78
2018-10-12T11:47:35.957Z,8.93
2018-10-12T11:50:04.020Z,8.33
2018-10-12T11:52:32.059Z,9.90
2018-10-12T11:55:00.141Z,8.73
2018-10-12T11:57:28.187Z,8.48
2018-10-12T11:59:56.310Z,8.75
2018-10-12T12:02:24.798Z,8.58
2018-10-12T12:04:52.833Z,8.88
2018-10-12T12:07:21.236Z,7.60
2018-10-12T12:09:49.403Z,7.35
2018-10-12T12:12:17.443Z,7.72
2018-10-12T12:14:45.650Z,7.85
2018-10-12T12:17:14.312Z,7.23
2018-10-12T12:19:42.444Z,7.60
2018-10-12T12:22:10.639Z,7.15
2018-10-12T12:24:39.030Z,7.55
2018-10-12T12:27:07.177Z,6.92
2018-10-12T12:29:35.719Z,7.25
2018-10-12T12:32:03.772Z,7.22
2018-10-12T12:34:31.890Z,6.67
2018-10-12T12:36:59.872Z,7.50
2018-10-12T12:39:27.961Z,7.55
2018-10-12T12:41:56.174Z,7.47
2018-10-12T12:44:24.255Z,7.65
2018-10-12T12:46:52.334Z,7.25
2018-10-12T12:49:21.150Z,7.50
2018-10-12T12:51:49.067Z,6.95
2018-10-12T12:54:17.090Z,6.87
2018-10-12T12:56:45.109Z,7.72
2018-10-12T12:59:13.490Z,7.35
2018-10-12T13:01:41.663Z,7.22
2018-10-12T13:04:10.055Z,6.33
2018-10-12T13:06:38.152Z,6.62
2018-10-12T13:09:07.403Z,7.75
2018-10-12T13:11:35.578Z,7.35
2018-10-12T13:14:03.631Z,7.10
2018-10-12T13:16:31.663Z,6.97
2018-10-12T13:18:59.932Z,6.95
2018-10-12T13:21:28.326Z,6.58
2018-10-12T13:23:56.398Z,6.58
2018-10-12T13:26:24.652Z,6.58
2018-10-12T13:28:52.541Z,6.65
2018-10-12T13:31:20.671Z,6.92
2018-10-12T13:33:48.763Z,6.80
2018-10-12T13:36:17.220Z,7.22
2018-10-12T13:38:45.243Z,7.42
2018-10-12T13:41:13.270Z,6.92
2018-10-12T13:43:41.396Z,7.05
2018-10-12T13:46:09.507Z,6.15
2018-10-12T13:48:37.571Z,6.25
2018-10-12T13:51:06.667Z,6.96
2018-10-12T13:53:34.808Z,6.20
2018-10-12T13:56:02.975Z,6.62
2018-10-12T13:58:31.171Z,6.90
2018-10-12T14:00:59.332Z,6.45
2018-10-12T14:03:27.539Z,6.42
2018-10-12T14:05:57.095Z,6.37
2018-10-12T14:08:25.185Z,6.47
2018-10-12T14:10:53.242Z,6.10
2018-10-12T14:13:21.298Z,7.08
2018-10-12T14:15:49.308Z,6.55
2018-10-12T14:18:17.339Z,6.55
2018-10-12T14:20:45.786Z,5.53
2018-10-12T14:23:13.818Z,6.33
2018-10-12T14:25:41.863Z,7.00
2018-10-12T14:28:10.015Z,7.17
2018-10-12T14:30:38.170Z,6.00
2018-10-12T14:33:06.895Z,6.33
2018-10-12T14:35:35.355Z,6.80
2018-10-12T14:38:03.844Z,6.37
2018-10-12T14:40:32.087Z,6.33
2018-10-12T14:43:00.170Z,5.87
2018-10-12T14:45:28.223Z,6.30
2018-10-12T14:47:56.278Z,6.45
2018-10-12T14:50:24.581Z,5.83
2018-10-12T14:52:52.887Z,6.10
2018-10-12T14:55:20.991Z,5.97
2018-10-12T14:57:49.215Z,6.47
2018-10-12T15:00:17.275Z,6.33
2018-10-12T15:02:47.713Z,6.58
2018-10-12T15:05:15.738Z,6.05
2018-10-12T15:07:43.946Z,5.97
2018-10-12T15:10:12.492Z,6.35
2018-10-12T15:12:40.519Z,6.58
2018-10-12T15:15:15.547Z,6.62
2018-10-12T15:17:43.683Z,6.58
2018-10-12T15:20:11.881Z,6.75
2018-10-12T15:22:40.151Z,6.25
2018-10-12T15:25:08.394Z,7.17
2018-10-12T15:27:37.418Z,6.13
2018-10-12T15:30:06.219Z,7.28
2018-10-12T15:32:34.256Z,6.78
2018-10-12T15:35:02.347Z,7.47
2018-10-12T15:37:30.880Z,6.92
2018-10-12T15:39:59.121Z,7.53
2018-10-12T15:42:27.196Z,6.87
2018-10-12T15:44:55.464Z,7.40
2018-10-12T15:47:23.951Z,7.33
2018-10-12T15:49:52.447Z,7.60
2018-10-12T15:52:20.535Z,7.62
2018-10-12T15:54:48.804Z,7.75
2018-10-12T15:57:17.817Z,8.43
2018-10-12T15:59:46.544Z,7.37
2018-10-12T16:02:14.650Z,7.40
2018-10-12T16:04:43.000Z,8.43
2018-10-12T16:07:11.103Z,7.47
2018-10-12T16:09:39.341Z,7.83
2018-10-12T16:12:07.499Z,8.38
2018-10-12T16:14:35.538Z,6.80
2018-10-12T16:17:03.712Z,7.97
2018-10-12T16:19:32.236Z,7.42
2018-10-12T16:22:00.803Z,7.72
2018-10-12T16:24:28.933Z,8.43
2018-10-12T16:26:57.171Z,7.97
2018-10-12T16:29:25.330Z,7.78
2018-10-12T16:31:53.406Z,8.28
2018-10-12T16:34:22.427Z,8.78
2018-10-12T16:36:50.703Z,8.00
2018-10-12T16:39:18.827Z,8.05
2018-10-12T16:41:46.900Z,8.05
2018-10-12T16:44:14.936Z,8.40
2018-10-12T16:46:42.995Z,8.25
2018-10-12T16:49:11.072Z,9.20
2018-10-12T16:51:39.133Z,7.90
2018-10-12T16:54:07.150Z,8.40
2018-10-12T16:56:41.899Z,9.08
2018-10-12T16:59:09.988Z,8.43
2018-10-12T17:01:38.183Z,9.83
2018-10-12T17:04:06.346Z,7.92
2018-10-12T17:06:34.366Z,9.13
2018-10-12T17:09:02.584Z,9.63
2018-10-12T17:11:30.852Z,9.20
2018-10-12T17:13:58.871Z,9.43
2018-10-12T17:16:27.209Z,9.23
2018-10-12T17:18:55.251Z,10.53
2018-10-12T17:21:23.280Z,9.83
2018-10-12T17:23:51.739Z,9.80
2018-10-12T17:26:19.783Z,9.18
2018-10-12T17:28:47.811Z,9.05
2018-10-12T17:31:16.247Z,9.68
2018-10-12T17:33:44.358Z,9.78
2018-10-12T17:36:12.415Z,9.25
2018-10-12T17:38:40.503Z,9.73
2018-10-12T17:41:12.782Z,10.30
2018-10-12T17:43:40.867Z,11.30
2018-10-12T17:46:08.929Z,9.23
2018-10-12T17:48:36.942Z,9.50
2018-10-12T17:51:05.133Z,10.40
2018-10-12T17:53:33.173Z,10.40
2018-10-12T17:56:01.220Z,9.55
2018-10-12T17:58:29.735Z,9.50
2018-10-12T18:00:57.876Z,10.53
2018-10-12T18:03:25.926Z,15.63
2018-10-12T18:05:54.104Z,10.25
2018-10-12T18:08:22.375Z,10.63
2018-10-12T18:10:50.581Z,10.70
2018-10-12T18:13:19.343Z,9.53
2018-10-12T18:15:47.407Z,14.18
2018-10-12T18:18:15.564Z,10.87
2018-10-12T18:20:43.851Z,11.90
2018-10-12T18:23:11.927Z,10.82
2018-10-12T18:25:40.080Z,11.48
2018-10-12T18:28:08.180Z,12.90
2018-10-12T18:30:36.307Z,12.30
2018-10-12T18:33:04.589Z,11.78
2018-10-12T18:35:32.762Z,11.08
2018-10-12T18:38:00.912Z,10.43
2018-10-12T18:40:29.213Z,11.68
2018-10-12T18:42:57.661Z,11.73
2018-10-12T18:45:25.642Z,11.05
2018-10-12T18:47:53.726Z,12.13
2018-10-12T18:50:21.942Z,12.18
2018-10-12T18:52:50.300Z,11.08
2018-10-12T18:55:18.692Z,13.05
2018-10-12T18:57:46.754Z,11.10
2018-10-12T19:00:15.972Z,12.07
2018-10-12T19:02:44.018Z,12.05
2018-10-12T19:05:12.855Z,11.90
2018-10-12T19:07:40.922Z,13.35
2018-10-12T19:10:09.384Z,15.28
2018-10-12T19:12:37.499Z,12.85
2018-10-12T19:15:05.907Z,15.53
2018-10-12T19:17:34.168Z,11.70
2018-10-12T19:20:02.221Z,14.03
2018-10-12T19:22:30.247Z,11.85
2018-10-12T19:24:58.303Z,12.03
2018-10-12T19:27:26.406Z,11.28
2018-10-12T19:29:54.510Z,12.53
2018-10-12T19:32:24.500Z,13.53
2018-10-12T19:34:52.542Z,13.13
2018-10-12T19:37:20.908Z,12.68
2018-10-12T19:39:49.200Z,12.43
2018-10-12T19:42:17.426Z,12.23
2018-10-12T19:44:45.471Z,11.70
2018-10-12T19:47:14.531Z,12.23
2018-10-12T19:49:42.603Z,15.08
2018-10-12T19:52:11.304Z,14.14
2018-10-12T19:54:39.364Z,14.93
2018-10-12T19:57:07.641Z,12.20
2018-10-12T19:59:35.723Z,10.93
2018-10-12T20:02:03.738Z,11.83
2018-10-12T20:04:31.791Z,11.93
2018-10-12T20:07:00.203Z,12.33
2018-10-12T20:09:28.271Z,13.62
2018-10-12T20:11:56.315Z,12.20
2018-10-12T20:14:24.883Z,10.50
2018-10-12T20:16:53.269Z,11.55
2018-10-12T20:19:21.304Z,11.65
2018-10-12T20:21:49.468Z,12.07
2018-10-12T20:24:17.729Z,11.45
2018-10-12T20:26:45.762Z,11.18
2018-10-12T20:29:14.888Z,11.60
2018-10-12T20:31:42.977Z,12.30
2018-10-12T20:34:10.966Z,10.32
2018-10-12T20:36:39.022Z,11.57
2018-10-12T20:39:08.303Z,11.78
2018-10-12T20:41:36.311Z,11.55
2018-10-12T20:44:04.352Z,12.15
2018-10-12T20:46:32.394Z,11.65
2018-10-12T20:49:00.528Z,12.55
2018-10-12T20:51:28.772Z,11.90
2018-10-12T20:53:56.927Z,11.63
2018-10-12T20:56:25.003Z,12.10
2018-10-12T20:58:53.543Z,10.82
2018-10-12T21:01:21.755Z,12.70
2018-10-12T21:03:49.792Z,11.70
2018-10-12T21:06:18.031Z,12.23
2018-10-12T21:08:46.059Z,11.93
2018-10-12T21:11:14.097Z,12.50
2018-10-12T21:13:42.138Z,11.85
2018-10-12T21:16:10.307Z,12.43
2018-10-12T21:18:38.666Z,12.25
2018-10-12T21:21:07.836Z,12.35
2018-10-12T21:23:36.039Z,12.63
2018-10-12T21:26:04.330Z,13.30
2018-10-12T21:28:32.778Z,13.40
2018-10-12T21:31:01.198Z,12.58
2018-10-12T21:33:29.443Z,12.78
2018-10-12T21:35:57.815Z,12.58
2018-10-12T21:38:25.842Z,13.15
2018-10-12T21:40:54.098Z,14.45
2018-10-12T21:43:22.203Z,13.48
2018-10-12T21:45:50.538Z,13.85
2018-10-12T21:48:18.624Z,13.13
2018-10-12T21:50:46.891Z,14.78
2018-10-12T21:53:18.526Z,13.40
2018-10-12T21:55:46.701Z,14.33
2018-10-12T21:58:14.750Z,13.03
2018-10-12T22:00:45.899Z,14.20
2018-10-12T22:03:15.070Z,14.47
2018-10-12T22:05:43.099Z,12.93
2018-10-12T22:08:15.456Z,13.98
2018-10-12T22:10:43.568Z,13.48
2018-10-12T22:13:11.740Z,14.50
2018-10-12T22:15:39.884Z,13.60
2018-10-12T22:18:07.943Z,13.22
2018-10-12T22:20:36.297Z,14.47
2018-10-12T22:23:04.497Z,14.65
2018-10-12T22:25:32.571Z,14.65
2018-10-12T22:28:00.599Z,14.85
2018-10-12T22:30:29.088Z,14.30
2018-10-12T22:32:57.217Z,13.70
2018-10-12T22:35:25.867Z,14.83
2018-10-12T22:37:53.936Z,14.35
2018-10-12T22:40:21.960Z,13.30
2018-10-12T22:42:50.672Z,13.10
2018-10-12T22:45:19.054Z,13.93
2018-10-12T22:47:47.138Z,13.68
2018-10-12T22:50:15.163Z,14.40
2018-10-12T22:52:43.239Z,14.65
2018-10-12T22:55:11.592Z,14.90
2018-10-12T22:57:39.754Z,14.07
2018-10-12T23:00:08.011Z,15.68
2018-10-12T23:02:36.077Z,15.43
2018-10-12T23:05:04.278Z,15.83
2018-10-12T23:07:32.568Z,15.05
2018-10-12T23:10:00.586Z,15.53
2018-10-12T23:12:28.714Z,14.35
2018-10-12T23:14:57.055Z,14.00
2018-10-12T23:17:25.175Z,14.68
2018-10-12T23:19:53.230Z,15.28
2018-10-12T23:22:22.223Z,16.43
2018-10-12T23:24:50.401Z,15.80
2018-10-12T23:27:18.462Z,15.08
2018-10-12T23:29:46.714Z,14.70
2018-10-12T23:32:14.743Z,15.23
2018-10-12T23:34:42.860Z,14.47
2018-10-12T23:37:11.133Z,14.20
2018-10-12T23:39:39.350Z,14.60
2018-10-12T23:42:07.378Z,15.00
2018-10-12T23:44:35.762Z,14.78
2018-10-12T23:47:03.795Z,15.58
2018-10-12T23:49:31.833Z,15.15
2018-10-12T23:52:06.933Z,14.93
2018-10-12T23:54:34.970Z,15.50
2018-10-12T23:57:03.056Z,14.60
2018-10-12T23:59:31.332Z,16.97
